createdAt,value
2022-10-27T00:01:56.070Z,2.77
2022-10-27T00:04:43.271Z,2.70
2022-10-27T00:07:30.333Z,2.53
2022-10-27T00:10:17.762Z,2.90
2022-10-27T00:13:07.050Z,2.53
2022-10-27T00:16:02.912Z,2.20
2022-10-27T00:18:50.088Z,2.47
2022-10-27T00:21:37.140Z,2.40
2022-10-27T00:24:24.182Z,2.50
2022-10-27T00:27:11.245Z,2.17
2022-10-27T00:29:58.180Z,2.17
2022-10-27T00:32:45.119Z,1.87
2022-10-27T00:35:32.069Z,2.13
2022-10-27T00:38:19.024Z,1.83
2022-10-27T00:41:09.342Z,2.20
2022-10-27T00:43:58.629Z,1.53
2022-10-27T00:46:47.219Z,2.00
2022-10-27T00:49:43.609Z,1.70
2022-10-27T00:52:43.822Z,1.97
2022-10-27T00:55:33.248Z,2.00
2022-10-27T00:58:21.271Z,1.80
2022-10-27T01:01:08.387Z,2.27
2022-10-27T01:03:56.266Z,3.17
2022-10-27T01:06:43.251Z,2.60
2022-10-27T01:09:31.834Z,2.60
2022-10-27T01:12:18.845Z,2.40
2022-10-27T01:15:06.671Z,2.57
2022-10-27T01:18:05.941Z,1.70
2022-10-27T01:21:09.642Z,1.53
2022-10-27T01:24:30.666Z,1.67
2022-10-27T01:27:25.782Z,1.60
2022-10-27T01:30:16.630Z,1.90
2022-10-27T01:33:13.560Z,1.40
2022-10-27T01:36:08.403Z,1.80
2022-10-27T01:39:03.435Z,1.50
2022-10-27T01:41:54.718Z,1.60
2022-10-27T01:44:47.784Z,1.60
2022-10-27T01:47:36.582Z,1.77
2022-10-27T01:50:40.021Z,3.33
2022-10-27T01:53:44.270Z,1.50
2022-10-27T01:56:52.358Z,4.63
2022-10-27T01:59:46.769Z,1.60
2022-10-27T02:02:36.514Z,1.40
2022-10-27T02:05:32.624Z,1.73
2022-10-27T02:08:29.421Z,3.10
2022-10-27T02:11:16.498Z,1.70
2022-10-27T02:14:04.243Z,1.57
2022-10-27T02:16:54.075Z,1.70
2022-10-27T02:19:45.627Z,2.13
2022-10-27T02:22:32.796Z,1.77
2022-10-27T02:25:28.174Z,1.80
2022-10-27T02:28:18.470Z,2.30
2022-10-27T02:31:07.646Z,2.40
2022-10-27T02:33:55.630Z,3.33
2022-10-27T02:36:43.179Z,1.70
2022-10-27T02:39:30.638Z,1.57
2022-10-27T02:42:17.739Z,2.17
2022-10-27T02:45:05.291Z,1.77
2022-10-27T02:47:52.251Z,1.60
2022-10-27T02:53:31.077Z,1.73
2022-10-27T02:56:18.029Z,2.37
2022-10-27T02:59:05.031Z,1.70
2022-10-27T03:01:52.158Z,1.70
2022-10-27T03:04:39.239Z,2.37
2022-10-27T03:07:26.353Z,2.03
2022-10-27T03:13:05.350Z,2.40
2022-10-27T03:15:52.422Z,3.03
2022-10-27T03:18:39.365Z,2.80
2022-10-27T03:21:26.373Z,3.03
2022-10-27T03:24:13.496Z,3.43
2022-10-27T03:27:00.498Z,2.67
2022-10-27T03:29:47.417Z,2.37
2022-10-27T03:32:34.819Z,2.00
2022-10-27T03:35:21.854Z,1.90
2022-10-27T03:38:09.433Z,2.37
2022-10-27T03:40:56.403Z,3.80
2022-10-27T03:43:43.358Z,2.30
2022-10-27T03:46:30.282Z,3.20
2022-10-27T03:49:17.304Z,1.90
2022-10-27T03:52:04.414Z,2.10
2022-10-27T03:54:51.383Z,2.50
2022-10-27T03:57:38.309Z,2.50
2022-10-27T04:00:25.882Z,3.83
2022-10-27T04:03:14.030Z,3.37
2022-10-27T04:06:00.990Z,1.70
2022-10-27T04:08:48.146Z,1.50
2022-10-27T04:11:35.083Z,1.60
2022-10-27T04:14:22.011Z,1.63
2022-10-27T04:17:08.954Z,1.80
2022-10-27T04:19:56.013Z,1.60
2022-10-27T04:22:42.959Z,1.63
2022-10-27T04:25:30.152Z,2.40
2022-10-27T04:28:17.151Z,4.10
2022-10-27T04:31:04.299Z,2.40
2022-10-27T04:33:51.272Z,1.93
2022-10-27T04:36:38.346Z,1.40
2022-10-27T04:39:25.458Z,1.20
2022-10-27T04:42:12.393Z,1.60
2022-10-27T04:44:59.327Z,1.50
2022-10-27T04:47:46.800Z,1.40
2022-10-27T04:50:33.862Z,1.70
2022-10-27T04:53:20.800Z,1.90
2022-10-27T04:56:07.973Z,2.70
2022-10-27T04:58:55.768Z,1.77
2022-10-27T05:01:43.155Z,1.60
2022-10-27T05:04:30.441Z,1.77
2022-10-27T05:07:17.548Z,1.70
2022-10-27T05:10:04.870Z,1.27
2022-10-27T05:12:52.325Z,1.37
2022-10-27T05:15:39.563Z,1.43
2022-10-27T05:18:26.703Z,1.60
2022-10-27T05:21:14.227Z,2.23
2022-10-27T05:24:01.367Z,2.73
2022-10-27T05:26:48.301Z,4.40
2022-10-27T05:29:35.448Z,2.53
2022-10-27T05:32:22.531Z,2.00
2022-10-27T05:35:10.349Z,1.93
2022-10-27T05:37:57.540Z,2.00
2022-10-27T05:40:45.378Z,1.50
2022-10-27T05:43:36.873Z,1.40
2022-10-27T05:46:26.490Z,2.53
2022-10-27T05:49:14.066Z,4.57
2022-10-27T05:52:01.748Z,4.13
2022-10-27T05:54:49.599Z,3.90
2022-10-27T05:57:37.264Z,3.50
2022-10-27T06:00:26.809Z,3.30
2022-10-27T06:03:20.642Z,3.53
2022-10-27T06:06:08.165Z,2.80
2022-10-27T06:08:55.918Z,3.30
2022-10-27T06:11:43.350Z,3.00
2022-10-27T06:14:30.836Z,2.40
2022-10-27T06:17:18.232Z,2.30
2022-10-27T06:20:06.278Z,7.00
2022-10-27T06:22:53.380Z,3.53
2022-10-27T06:25:40.543Z,3.03
2022-10-27T06:28:27.538Z,2.17
2022-10-27T06:31:14.585Z,2.47
2022-10-27T06:34:01.605Z,5.23
2022-10-27T06:36:48.663Z,2.10
2022-10-27T06:39:35.892Z,2.40
2022-10-27T06:42:24.763Z,2.27
2022-10-27T06:45:11.745Z,2.13
2022-10-27T06:48:01.977Z,2.20
2022-10-27T06:50:49.166Z,2.60
2022-10-27T06:53:36.113Z,2.17
2022-10-27T06:56:23.127Z,1.90
2022-10-27T06:59:10.152Z,2.13
2022-10-27T07:01:57.231Z,2.30
2022-10-27T07:04:44.243Z,21.17
2022-10-27T07:07:31.408Z,9.67
2022-10-27T07:10:20.153Z,4.07
2022-10-27T07:13:07.205Z,5.10
2022-10-27T07:15:54.229Z,4.90
2022-10-27T07:18:41.179Z,5.40
2022-10-27T07:21:28.637Z,4.90
2022-10-27T07:24:16.214Z,4.30
2022-10-27T07:27:03.171Z,6.43
2022-10-27T07:29:54.926Z,7.13
2022-10-27T07:32:42.619Z,6.97
2022-10-27T07:35:29.633Z,4.53
2022-10-27T07:38:16.962Z,2.87
2022-10-27T07:41:03.982Z,2.20
2022-10-27T07:43:50.991Z,1.83
2022-10-27T07:46:37.931Z,1.80
2022-10-27T07:49:24.858Z,1.70
2022-10-27T07:52:11.845Z,1.80
2022-10-27T07:54:58.771Z,1.70
2022-10-27T07:57:46.363Z,1.83
2022-10-27T08:00:35.531Z,1.90
2022-10-27T08:03:26.139Z,1.80
2022-10-27T08:06:13.213Z,1.50
2022-10-27T08:09:00.175Z,1.60
2022-10-27T08:11:47.176Z,1.40
2022-10-27T08:14:34.136Z,1.70
2022-10-27T08:17:21.097Z,1.70
2022-10-27T08:20:08.904Z,1.70
2022-10-27T08:22:56.926Z,1.53
2022-10-27T08:25:44.449Z,1.50
2022-10-27T08:28:31.457Z,1.80
2022-10-27T08:31:18.878Z,1.60
2022-10-27T08:34:05.862Z,1.50
2022-10-27T08:36:52.861Z,1.60
2022-10-27T08:39:39.859Z,2.03
2022-10-27T08:42:38.957Z,1.80
2022-10-27T08:45:32.870Z,1.87
2022-10-27T08:48:24.743Z,1.60
2022-10-27T08:51:18.971Z,1.90
2022-10-27T08:54:06.685Z,2.47
2022-10-27T08:56:57.946Z,2.30
2022-10-27T08:59:45.111Z,2.37
2022-10-27T09:02:41.328Z,2.70
2022-10-27T09:09:21.315Z,2.53
2022-10-27T09:12:45.458Z,3.10
2022-10-27T09:15:41.087Z,3.03
2022-10-27T09:18:35.973Z,3.27
2022-10-27T09:21:25.940Z,3.50
2022-10-27T09:24:20.624Z,3.10
2022-10-27T09:27:13.198Z,3.60
2022-10-27T09:30:08.261Z,4.03
2022-10-27T09:32:59.015Z,2.67
2022-10-27T09:35:47.338Z,2.90
2022-10-27T09:38:34.298Z,3.20
2022-10-27T09:41:21.330Z,3.30
2022-10-27T09:44:19.088Z,3.17
2022-10-27T09:47:06.137Z,2.73
2022-10-27T09:49:56.173Z,3.00
2022-10-27T09:52:44.642Z,3.60
2022-10-27T09:55:51.089Z,2.90
2022-10-27T09:58:58.479Z,3.00
2022-10-27T10:01:50.269Z,2.80
2022-10-27T10:04:46.948Z,3.20
2022-10-27T10:07:38.025Z,3.60
2022-10-27T10:10:30.130Z,3.17
2022-10-27T10:13:17.471Z,2.83
2022-10-27T10:16:15.712Z,3.73
2022-10-27T10:19:15.505Z,2.53
2022-10-27T10:22:02.535Z,2.60
2022-10-27T10:24:49.798Z,3.00
2022-10-27T10:27:36.860Z,2.90
2022-10-27T10:30:24.137Z,2.40
2022-10-27T10:33:16.610Z,3.37
2022-10-27T10:36:17.440Z,2.77
2022-10-27T10:39:23.722Z,2.60
2022-10-27T10:42:10.615Z,2.30
2022-10-27T10:45:10.899Z,2.93
2022-10-27T10:48:28.695Z,3.57
2022-10-27T10:54:27.552Z,2.63
2022-10-27T10:57:35.624Z,2.50
2022-10-27T11:00:22.968Z,2.77
2022-10-27T11:03:18.701Z,2.93
2022-10-27T11:06:15.260Z,3.33
2022-10-27T11:09:04.260Z,2.83
2022-10-27T11:11:52.043Z,2.73
2022-10-27T11:14:41.656Z,2.80
2022-10-27T11:17:34.183Z,2.70
2022-10-27T11:20:25.475Z,2.77
2022-10-27T11:23:41.503Z,4.57
2022-10-27T11:26:44.015Z,2.67
2022-10-27T11:29:52.505Z,3.30
2022-10-27T11:33:05.827Z,3.60
2022-10-27T11:35:52.747Z,2.50
2022-10-27T11:39:08.262Z,2.80
2022-10-27T11:42:18.480Z,4.87
2022-10-27T11:45:18.160Z,3.00
2022-10-27T11:48:23.596Z,2.33
2022-10-27T11:51:21.878Z,2.93
2022-10-27T11:54:09.886Z,2.00
2022-10-27T11:57:38.863Z,2.47
2022-10-27T12:00:29.539Z,2.53
2022-10-27T12:03:35.131Z,2.50
2022-10-27T12:06:30.852Z,2.23
2022-10-27T12:09:32.980Z,4.57
2022-10-27T12:12:25.415Z,2.00
2022-10-27T12:15:29.205Z,2.23
2022-10-27T12:18:34.138Z,3.03
2022-10-27T12:21:28.767Z,2.33
2022-10-27T12:24:28.233Z,2.00
2022-10-27T12:27:30.541Z,2.13
2022-10-27T12:30:22.752Z,1.80
2022-10-27T12:33:29.195Z,3.10
2022-10-27T12:36:26.810Z,2.87
2022-10-27T12:39:23.213Z,4.10
2022-10-27T12:42:14.898Z,2.97
2022-10-27T12:45:07.729Z,3.37
2022-10-27T12:48:08.827Z,4.53
2022-10-27T12:51:04.707Z,3.50
2022-10-27T12:54:04.009Z,2.70
2022-10-27T12:57:22.140Z,2.13
2022-10-27T13:00:14.954Z,3.63
2022-10-27T13:03:13.238Z,2.00
2022-10-27T13:06:33.253Z,2.50
2022-10-27T13:09:35.195Z,3.37
2022-10-27T13:12:39.243Z,2.57
2022-10-27T13:15:53.570Z,4.30
2022-10-27T13:18:59.159Z,1.80
2022-10-27T13:22:01.122Z,2.67
2022-10-27T13:25:19.302Z,5.63
2022-10-27T13:28:16.575Z,1.80
2022-10-27T13:31:12.961Z,5.37
2022-10-27T13:34:19.026Z,2.07
2022-10-27T13:37:49.981Z,3.57
2022-10-27T13:40:39.129Z,5.43
2022-10-27T13:43:29.740Z,4.93
2022-10-27T13:46:16.809Z,2.57
2022-10-27T13:49:03.733Z,2.50
2022-10-27T13:52:15.922Z,5.60
2022-10-27T13:55:08.889Z,3.20
2022-10-27T13:58:17.785Z,3.40
2022-10-27T14:01:23.507Z,2.23
2022-10-27T14:04:29.396Z,3.27
2022-10-27T14:07:16.434Z,1.77
2022-10-27T14:10:03.930Z,2.73
2022-10-27T14:12:51.645Z,2.50
2022-10-27T14:15:38.856Z,3.57
2022-10-27T14:18:30.591Z,2.97
2022-10-27T14:21:21.449Z,5.60
2022-10-27T14:24:18.150Z,2.70
2022-10-27T14:27:06.409Z,4.53
2022-10-27T14:30:03.306Z,3.83
2022-10-27T14:32:50.368Z,4.40
2022-10-27T14:35:37.654Z,4.40
2022-10-27T14:38:24.652Z,4.63
2022-10-27T14:41:20.039Z,4.70
2022-10-27T14:44:21.755Z,4.30
2022-10-27T14:47:16.402Z,2.93
2022-10-27T14:50:15.590Z,3.40
2022-10-27T14:53:03.829Z,2.43
2022-10-27T14:56:04.736Z,4.63
2022-10-27T14:58:59.649Z,4.53
2022-10-27T15:01:47.002Z,3.53
2022-10-27T15:04:34.506Z,5.27
2022-10-27T15:07:23.826Z,3.50
2022-10-27T15:10:16.799Z,3.63
2022-10-27T15:13:06.176Z,2.50
2022-10-27T15:15:59.092Z,5.00
2022-10-27T15:18:46.681Z,2.47
2022-10-27T15:21:33.660Z,4.77
2022-10-27T15:24:23.615Z,2.80
2022-10-27T15:27:14.651Z,3.13
2022-10-27T15:30:02.323Z,2.70
2022-10-27T15:32:49.910Z,2.57
2022-10-27T15:35:38.828Z,3.77
2022-10-27T15:38:30.369Z,3.03
2022-10-27T15:41:29.562Z,3.00
2022-10-27T15:44:25.889Z,2.97
2022-10-27T15:47:42.779Z,3.83
2022-10-27T15:50:36.619Z,4.80
2022-10-27T15:53:23.899Z,2.20
2022-10-27T15:56:32.122Z,5.53
2022-10-27T15:59:31.017Z,4.17
2022-10-27T16:02:37.383Z,2.53
2022-10-27T16:05:30.222Z,4.33
2022-10-27T16:08:17.365Z,6.90
2022-10-27T16:11:04.439Z,11.90
2022-10-27T16:13:57.806Z,9.33
2022-10-27T16:16:46.412Z,4.93
2022-10-27T16:19:33.605Z,4.47
2022-10-27T16:22:22.196Z,7.57
2022-10-27T16:25:14.067Z,2.83
2022-10-27T16:28:04.052Z,5.37
2022-10-27T16:30:51.642Z,8.17
2022-10-27T16:33:39.972Z,4.87
2022-10-27T16:36:27.015Z,6.20
2022-10-27T16:39:13.963Z,6.50
2022-10-27T16:42:00.939Z,2.27
2022-10-27T16:47:41.182Z,6.10
2022-10-27T16:50:28.402Z,2.60
2022-10-27T16:53:20.147Z,4.13
2022-10-27T16:56:07.700Z,7.90
2022-10-27T16:58:54.618Z,7.07
2022-10-27T17:01:41.727Z,5.77
2022-10-27T17:04:28.831Z,7.57
2022-10-27T17:07:15.835Z,6.33
2022-10-27T17:10:04.225Z,3.20
2022-10-27T17:12:51.470Z,6.00
2022-10-27T17:15:38.629Z,3.80
2022-10-27T17:18:25.561Z,2.17
2022-10-27T17:21:14.344Z,2.63
2022-10-27T17:24:01.368Z,5.93
2022-10-27T17:26:48.308Z,3.47
2022-10-27T17:29:35.250Z,2.40
2022-10-27T17:32:22.187Z,3.00
2022-10-27T17:35:09.318Z,6.07
2022-10-27T17:37:56.214Z,4.97
2022-10-27T17:40:51.049Z,9.60
2022-10-27T17:43:38.674Z,13.30
2022-10-27T17:46:26.638Z,11.17
2022-10-27T17:49:13.572Z,15.20
2022-10-27T17:52:02.155Z,9.50
2022-10-27T17:54:49.112Z,5.40
2022-10-27T17:57:36.126Z,11.73
2022-10-27T18:00:23.205Z,11.53
2022-10-27T18:03:10.119Z,18.23
2022-10-27T18:06:01.448Z,10.97
2022-10-27T18:08:52.975Z,12.93
2022-10-27T18:11:41.928Z,4.27
2022-10-27T18:14:28.933Z,6.40
2022-10-27T18:17:15.864Z,6.60
2022-10-27T18:20:02.820Z,7.43
2022-10-27T18:22:50.801Z,4.17
2022-10-27T18:25:38.091Z,4.70
2022-10-27T18:28:25.032Z,4.53
2022-10-27T18:31:15.905Z,3.53
2022-10-27T18:34:08.540Z,4.87
2022-10-27T18:36:55.516Z,5.33
2022-10-27T18:39:42.438Z,4.03
2022-10-27T18:42:30.711Z,5.90
2022-10-27T18:45:17.661Z,3.50
2022-10-27T18:48:05.665Z,3.63
2022-10-27T18:51:06.026Z,3.93
2022-10-27T18:53:57.872Z,3.63
2022-10-27T18:56:44.947Z,4.57
2022-10-27T18:59:32.191Z,3.93
2022-10-27T19:02:19.239Z,3.60
2022-10-27T19:05:08.214Z,3.53
2022-10-27T19:07:55.184Z,3.37
2022-10-27T19:10:42.182Z,3.00
2022-10-27T19:13:29.481Z,2.60
2022-10-27T19:16:18.654Z,3.17
2022-10-27T19:19:05.623Z,2.47
2022-10-27T19:21:52.584Z,2.10
2022-10-27T19:24:39.657Z,3.23
2022-10-27T19:27:26.613Z,2.63
2022-10-27T19:30:13.851Z,2.33
2022-10-27T19:33:00.802Z,3.60
2022-10-27T19:35:48.074Z,2.80
2022-10-27T19:38:36.366Z,2.67
2022-10-27T19:41:26.685Z,2.50
2022-10-27T19:44:14.014Z,2.30
2022-10-27T19:47:01.609Z,2.30
2022-10-27T19:49:48.579Z,2.90
2022-10-27T19:52:35.517Z,3.50
2022-10-27T19:55:22.471Z,3.30
2022-10-27T19:58:09.454Z,1.90
2022-10-27T20:00:56.414Z,2.67
2022-10-27T20:03:43.831Z,1.80
2022-10-27T20:06:30.985Z,1.70
2022-10-27T20:09:20.788Z,2.60
2022-10-27T20:12:08.685Z,1.90
2022-10-27T20:14:55.957Z,1.60
2022-10-27T20:17:42.987Z,1.50
2022-10-27T20:20:29.929Z,1.87
2022-10-27T20:23:16.897Z,1.90
2022-10-27T20:26:28.005Z,1.90
2022-10-27T20:29:14.030Z,1.50
2022-10-27T20:32:01.013Z,2.00
2022-10-27T20:34:48.186Z,2.10
2022-10-27T20:37:40.387Z,2.10
2022-10-27T20:40:27.371Z,2.30
2022-10-27T20:43:14.420Z,2.23
2022-10-27T20:46:02.187Z,3.10
2022-10-27T20:48:50.836Z,2.40
2022-10-27T20:51:37.782Z,2.40
2022-10-27T20:54:24.902Z,2.60
2022-10-27T20:57:11.867Z,2.53
2022-10-27T20:59:58.818Z,2.50
2022-10-27T21:02:49.612Z,2.90
2022-10-27T21:05:36.974Z,1.93
2022-10-27T21:08:25.204Z,1.90
2022-10-27T21:11:12.278Z,2.23
2022-10-27T21:14:01.335Z,5.07
2022-10-27T21:16:51.936Z,3.00
2022-10-27T21:19:39.241Z,2.73
2022-10-27T21:22:26.180Z,2.90
2022-10-27T21:25:13.227Z,2.53
2022-10-27T21:28:00.394Z,3.97
2022-10-27T21:30:47.343Z,3.53
2022-10-27T21:33:35.934Z,2.67
2022-10-27T21:36:23.139Z,2.20
2022-10-27T21:39:10.120Z,2.10
2022-10-27T21:41:57.039Z,2.90
2022-10-27T21:44:43.947Z,2.60
2022-10-27T21:47:33.135Z,2.93
2022-10-27T21:50:20.078Z,2.23
2022-10-27T21:53:07.936Z,2.73
2022-10-27T21:56:03.001Z,2.50
2022-10-27T21:58:50.219Z,3.57
2022-10-27T22:01:37.396Z,4.47
2022-10-27T22:04:27.094Z,3.23
2022-10-27T22:07:16.336Z,3.50
2022-10-27T22:10:03.523Z,2.83
2022-10-27T22:12:50.876Z,3.03
2022-10-27T22:15:37.982Z,2.73
2022-10-27T22:18:24.901Z,3.00
2022-10-27T22:21:14.319Z,2.60
2022-10-27T22:24:01.758Z,4.33
2022-10-27T22:26:48.692Z,2.67
2022-10-27T22:29:35.631Z,2.47
2022-10-27T22:32:22.634Z,2.37
2022-10-27T22:35:10.028Z,2.60
2022-10-27T22:37:56.979Z,2.60
2022-10-27T22:40:43.910Z,2.23
2022-10-27T22:43:31.134Z,2.30
2022-10-27T22:46:21.002Z,2.30
2022-10-27T22:49:08.044Z,3.43
2022-10-27T22:51:54.976Z,4.17
2022-10-27T22:54:41.885Z,4.13
2022-10-27T22:57:29.777Z,3.37
2022-10-27T23:00:16.896Z,3.63
2022-10-27T23:03:03.853Z,3.67
2022-10-27T23:05:50.795Z,4.17
2022-10-27T23:08:37.999Z,5.60
2022-10-27T23:11:28.483Z,5.10
2022-10-27T23:14:16.766Z,3.10
2022-10-27T23:17:03.790Z,3.30
2022-10-27T23:19:50.702Z,3.00
2022-10-27T23:22:37.640Z,3.33
2022-10-27T23:25:24.680Z,3.67
2022-10-27T23:28:11.703Z,3.20
2022-10-27T23:31:03.132Z,4.33
2022-10-27T23:33:55.016Z,3.53
2022-10-27T23:36:44.334Z,2.83
2022-10-27T23:39:31.911Z,3.40
2022-10-27T23:42:18.816Z,3.33
2022-10-27T23:45:06.252Z,2.40
2022-10-27T23:47:53.938Z,2.57
2022-10-27T23:50:42.845Z,2.70
2022-10-27T23:53:30.793Z,2.77
2022-10-27T23:56:18.386Z,2.77
2022-10-27T23:59:06.448Z,2.90
